sensor_id;sensor_type;location;lat;lon;timestamp;P1;durP1;ratioP1;P2;durP2;ratioP2
67193;SDS011;54121;53.508;49.422;2022-08-07T00:01:34;10.32;;;4.45;;
67193;SDS011;54121;53.508;49.422;2022-08-07T00:04:01;11.85;;;4.22;;
67193;SDS011;54121;53.508;49.422;2022-08-07T00:06:28;9.68;;;4.20;;
67193;SDS011;54121;53.508;49.422;2022-08-07T00:08:54;9.85;;;4.10;;
67193;SDS011;54121;53.508;49.422;2022-08-07T00:11:21;15.23;;;4.55;;
67193;SDS011;54121;53.508;49.422;2022-08-07T00:13:48;11.80;;;4.10;;
67193;SDS011;54121;53.508;49.422;2022-08-07T00:16:15;11.50;;;3.85;;
67193;SDS011;54121;53.508;49.422;2022-08-07T00:18:41;7.60;;;4.32;;
67193;SDS011;54121;53.508;49.422;2022-08-07T00:21:08;13.57;;;4.85;;
67193;SDS011;54121;53.508;49.422;2022-08-07T00:23:38;13.43;;;4.00;;
67193;SDS011;54121;53.508;49.422;2022-08-07T00:26:06;10.15;;;3.88;;
67193;SDS011;54121;53.508;49.422;2022-08-07T00:28:33;15.60;;;4.82;;
67193;SDS011;54121;53.508;49.422;2022-08-07T00:31:01;7.18;;;3.88;;
67193;SDS011;54121;53.508;49.422;2022-08-07T00:33:28;10.68;;;4.07;;
67193;SDS011;54121;53.508;49.422;2022-08-07T00:35:54;11.82;;;4.18;;
67193;SDS011;54121;53.508;49.422;2022-08-07T00:38:21;9.98;;;4.05;;
67193;SDS011;54121;53.508;49.422;2022-08-07T00:40:48;13.02;;;4.20;;
67193;SDS011;54121;53.508;49.422;2022-08-07T00:43:15;9.48;;;4.38;;
67193;SDS011;54121;53.508;49.422;2022-08-07T00:45:42;11.32;;;4.18;;
67193;SDS011;54121;53.508;49.422;2022-08-07T00:48:09;7.90;;;4.20;;
67193;SDS011;54121;53.508;49.422;2022-08-07T00:50:39;11.60;;;4.60;;
67193;SDS011;54121;53.508;49.422;2022-08-07T00:53:06;10.80;;;4.47;;
67193;SDS011;54121;53.508;49.422;2022-08-07T00:55:33;10.73;;;4.55;;
67193;SDS011;54121;53.508;49.422;2022-08-07T00:58:01;10.38;;;5.40;;
67193;SDS011;54121;53.508;49.422;2022-08-07T01:00:28;13.07;;;5.10;;
67193;SDS011;54121;53.508;49.422;2022-08-07T01:02:55;13.23;;;5.40;;
67193;SDS011;54121;53.508;49.422;2022-08-07T01:05:22;20.10;;;6.57;;
67193;SDS011;54121;53.508;49.422;2022-08-07T01:07:48;18.98;;;5.88;;
67193;SDS011;54121;53.508;49.422;2022-08-07T01:10:15;18.30;;;5.05;;
67193;SDS011;54121;53.508;49.422;2022-08-07T01:12:42;15.45;;;6.43;;
67193;SDS011;54121;53.508;49.422;2022-08-07T01:15:09;19.65;;;6.07;;
67193;SDS011;54121;53.508;49.422;2022-08-07T01:17:36;9.75;;;5.80;;
67193;SDS011;54121;53.508;49.422;2022-08-07T01:20:07;14.95;;;6.05;;
67193;SDS011;54121;53.508;49.422;2022-08-07T01:22:35;14.13;;;6.93;;
67193;SDS011;54121;53.508;49.422;2022-08-07T01:25:02;13.73;;;6.20;;
67193;SDS011;54121;53.508;49.422;2022-08-07T01:27:29;12.90;;;6.22;;
67193;SDS011;54121;53.508;49.422;2022-08-07T01:29:56;14.18;;;6.40;;
67193;SDS011;54121;53.508;49.422;2022-08-07T01:32:23;12.55;;;6.47;;
67193;SDS011;54121;53.508;49.422;2022-08-07T01:34:50;14.02;;;6.95;;
67193;SDS011;54121;53.508;49.422;2022-08-07T01:37:17;23.42;;;7.13;;
67193;SDS011;54121;53.508;49.422;2022-08-07T01:39:44;17.73;;;6.60;;
67193;SDS011;54121;53.508;49.422;2022-08-07T01:42:14;19.27;;;9.00;;
67193;SDS011;54121;53.508;49.422;2022-08-07T01:44:41;25.60;;;10.05;;
67193;SDS011;54121;53.508;49.422;2022-08-07T01:47:08;27.48;;;6.85;;
67193;SDS011;54121;53.508;49.422;2022-08-07T01:49:36;13.55;;;7.00;;
67193;SDS011;54121;53.508;49.422;2022-08-07T01:52:04;14.68;;;6.82;;
67193;SDS011;54121;53.508;49.422;2022-08-07T01:54:34;16.70;;;7.40;;
67193;SDS011;54121;53.508;49.422;2022-08-07T01:57:04;19.27;;;7.60;;
67193;SDS011;54121;53.508;49.422;2022-08-07T01:59:35;16.60;;;7.90;;
67193;SDS011;54121;53.508;49.422;2022-08-07T02:02:07;14.30;;;7.57;;
67193;SDS011;54121;53.508;49.422;2022-08-07T02:07:32;18.30;;;7.38;;
67193;SDS011;54121;53.508;49.422;2022-08-07T02:10:00;19.33;;;7.88;;
67193;SDS011;54121;53.508;49.422;2022-08-07T02:12:29;17.13;;;7.13;;
67193;SDS011;54121;53.508;49.422;2022-08-07T02:14:57;19.33;;;8.07;;
67193;SDS011;54121;53.508;49.422;2022-08-07T02:17:24;24.27;;;8.23;;
67193;SDS011;54121;53.508;49.422;2022-08-07T02:19:51;17.73;;;8.05;;
67193;SDS011;54121;53.508;49.422;2022-08-07T02:22:19;20.08;;;8.35;;
67193;SDS011;54121;53.508;49.422;2022-08-07T02:24:48;26.52;;;8.23;;
67193;SDS011;54121;53.508;49.422;2022-08-07T02:27:17;20.60;;;8.18;;
67193;SDS011;54121;53.508;49.422;2022-08-07T02:32:12;21.02;;;8.25;;
67193;SDS011;54121;53.508;49.422;2022-08-07T02:34:39;24.08;;;7.45;;
67193;SDS011;54121;53.508;49.422;2022-08-07T02:37:06;22.73;;;7.00;;
67193;SDS011;54121;53.508;49.422;2022-08-07T02:39:35;24.63;;;8.43;;
67193;SDS011;54121;53.508;49.422;2022-08-07T02:42:04;22.38;;;7.75;;
67193;SDS011;54121;53.508;49.422;2022-08-07T02:44:31;18.15;;;6.50;;
67193;SDS011;54121;53.508;49.422;2022-08-07T02:46:59;17.75;;;5.85;;
67193;SDS011;54121;53.508;49.422;2022-08-07T02:49:26;10.73;;;5.20;;
67193;SDS011;54121;53.508;49.422;2022-08-07T02:51:54;17.10;;;6.55;;
67193;SDS011;54121;53.508;49.422;2022-08-07T02:54:22;11.13;;;5.32;;
67193;SDS011;54121;53.508;49.422;2022-08-07T02:56:49;14.63;;;5.00;;
67193;SDS011;54121;53.508;49.422;2022-08-07T02:59:18;13.73;;;4.38;;
67193;SDS011;54121;53.508;49.422;2022-08-07T03:01:46;13.50;;;5.05;;
67193;SDS011;54121;53.508;49.422;2022-08-07T03:04:13;18.05;;;6.03;;
67193;SDS011;54121;53.508;49.422;2022-08-07T03:06:41;13.15;;;4.57;;
67193;SDS011;54121;53.508;49.422;2022-08-07T03:09:08;16.70;;;5.68;;
67193;SDS011;54121;53.508;49.422;2022-08-07T03:11:35;22.80;;;5.95;;
67193;SDS011;54121;53.508;49.422;2022-08-07T03:14:02;14.60;;;5.80;;
67193;SDS011;54121;53.508;49.422;2022-08-07T03:16:30;23.30;;;6.97;;
67193;SDS011;54121;53.508;49.422;2022-08-07T03:19:00;21.20;;;7.03;;
67193;SDS011;54121;53.508;49.422;2022-08-07T03:21:27;17.98;;;7.03;;
67193;SDS011;54121;53.508;49.422;2022-08-07T03:23:55;24.52;;;7.00;;
67193;SDS011;54121;53.508;49.422;2022-08-07T03:26:23;14.20;;;6.85;;
67193;SDS011;54121;53.508;49.422;2022-08-07T03:28:55;18.00;;;7.00;;
67193;SDS011;54121;53.508;49.422;2022-08-07T03:31:25;23.27;;;8.05;;
67193;SDS011;54121;53.508;49.422;2022-08-07T03:33:57;15.40;;;7.35;;
67193;SDS011;54121;53.508;49.422;2022-08-07T03:36:26;19.05;;;6.88;;
67193;SDS011;54121;53.508;49.422;2022-08-07T03:38:54;28.30;;;8.73;;
67193;SDS011;54121;53.508;49.422;2022-08-07T03:41:24;18.45;;;6.68;;
67193;SDS011;54121;53.508;49.422;2022-08-07T03:43:52;18.70;;;8.40;;
67193;SDS011;54121;53.508;49.422;2022-08-07T03:46:19;15.50;;;6.97;;
67193;SDS011;54121;53.508;49.422;2022-08-07T03:48:47;13.80;;;6.57;;
67193;SDS011;54121;53.508;49.422;2022-08-07T03:51:14;11.52;;;5.22;;
67193;SDS011;54121;53.508;49.422;2022-08-07T03:53:42;19.00;;;5.85;;
67193;SDS011;54121;53.508;49.422;2022-08-07T03:56:09;20.08;;;5.72;;
67193;SDS011;54121;53.508;49.422;2022-08-07T03:58:39;11.25;;;6.03;;
67193;SDS011;54121;53.508;49.422;2022-08-07T04:01:07;13.52;;;6.28;;
67193;SDS011;54121;53.508;49.422;2022-08-07T04:03:35;11.00;;;5.90;;
67193;SDS011;54121;53.508;49.422;2022-08-07T04:06:02;16.02;;;6.68;;
67193;SDS011;54121;53.508;49.422;2022-08-07T04:08:32;10.90;;;6.00;;
67193;SDS011;54121;53.508;49.422;2022-08-07T04:10:59;15.73;;;6.18;;
67193;SDS011;54121;53.508;49.422;2022-08-07T04:13:26;9.98;;;5.80;;
67193;SDS011;54121;53.508;49.422;2022-08-07T04:15:53;13.05;;;5.63;;
67193;SDS011;54121;53.508;49.422;2022-08-07T04:18:19;11.38;;;4.88;;
67193;SDS011;54121;53.508;49.422;2022-08-07T04:20:46;9.35;;;4.80;;
67193;SDS011;54121;53.508;49.422;2022-08-07T04:23:13;9.55;;;5.45;;
67193;SDS011;54121;53.508;49.422;2022-08-07T04:25:40;7.60;;;4.95;;
67193;SDS011;54121;53.508;49.422;2022-08-07T04:28:07;6.90;;;4.50;;
67193;SDS011;54121;53.508;49.422;2022-08-07T04:30:37;14.07;;;5.28;;
67193;SDS011;54121;53.508;49.422;2022-08-07T04:33:05;12.25;;;4.97;;
67193;SDS011;54121;53.508;49.422;2022-08-07T04:35:34;14.90;;;5.32;;
67193;SDS011;54121;53.508;49.422;2022-08-07T04:38:05;17.50;;;6.05;;
67193;SDS011;54121;53.508;49.422;2022-08-07T04:40:33;12.38;;;4.93;;
67193;SDS011;54121;53.508;49.422;2022-08-07T04:43:03;16.17;;;5.93;;
67193;SDS011;54121;53.508;49.422;2022-08-07T04:45:36;12.10;;;4.25;;
67193;SDS011;54121;53.508;49.422;2022-08-07T04:48:11;12.85;;;4.18;;
67193;SDS011;54121;53.508;49.422;2022-08-07T04:54:02;15.38;;;4.30;;
67193;SDS011;54121;53.508;49.422;2022-08-07T04:56:52;8.30;;;3.88;;
67193;SDS011;54121;53.508;49.422;2022-08-07T05:00:00;8.48;;;4.28;;
67193;SDS011;54121;53.508;49.422;2022-08-07T05:02:52;7.82;;;4.03;;
67193;SDS011;54121;53.508;49.422;2022-08-07T05:05:27;14.50;;;3.95;;
67193;SDS011;54121;53.508;49.422;2022-08-07T05:08:23;6.20;;;3.38;;
67193;SDS011;54121;53.508;49.422;2022-08-07T05:14:05;10.02;;;3.70;;
67193;SDS011;54121;53.508;49.422;2022-08-07T05:16:41;17.65;;;3.70;;
67193;SDS011;54121;53.508;49.422;2022-08-07T05:19:13;9.77;;;3.25;;
67193;SDS011;54121;53.508;49.422;2022-08-07T05:21:54;11.90;;;3.58;;
67193;SDS011;54121;53.508;49.422;2022-08-07T05:24:24;9.45;;;3.22;;
67193;SDS011;54121;53.508;49.422;2022-08-07T05:26:52;9.00;;;3.60;;
67193;SDS011;54121;53.508;49.422;2022-08-07T05:29:24;17.92;;;3.85;;
67193;SDS011;54121;53.508;49.422;2022-08-07T05:31:52;9.90;;;3.70;;
67193;SDS011;54121;53.508;49.422;2022-08-07T05:36:49;12.98;;;3.50;;
67193;SDS011;54121;53.508;49.422;2022-08-07T05:39:18;10.80;;;3.60;;
67193;SDS011;54121;53.508;49.422;2022-08-07T05:41:46;7.22;;;3.65;;
67193;SDS011;54121;53.508;49.422;2022-08-07T05:44:14;8.80;;;3.10;;
67193;SDS011;54121;53.508;49.422;2022-08-07T05:46:45;10.43;;;3.03;;
67193;SDS011;54121;53.508;49.422;2022-08-07T05:49:13;14.07;;;4.25;;
67193;SDS011;54121;53.508;49.422;2022-08-07T05:51:41;6.93;;;3.42;;
67193;SDS011;54121;53.508;49.422;2022-08-07T05:54:09;11.55;;;4.30;;
67193;SDS011;54121;53.508;49.422;2022-08-07T05:56:37;13.82;;;5.05;;
67193;SDS011;54121;53.508;49.422;2022-08-07T05:59:05;8.98;;;4.50;;
67193;SDS011;54121;53.508;49.422;2022-08-07T06:01:38;10.52;;;4.07;;
67193;SDS011;54121;53.508;49.422;2022-08-07T06:04:06;18.05;;;4.85;;
67193;SDS011;54121;53.508;49.422;2022-08-07T06:06:33;11.63;;;3.88;;
67193;SDS011;54121;53.508;49.422;2022-08-07T06:09:01;9.70;;;4.73;;
67193;SDS011;54121;53.508;49.422;2022-08-07T06:11:28;9.40;;;3.13;;
67193;SDS011;54121;53.508;49.422;2022-08-07T06:13:55;21.58;;;4.32;;
67193;SDS011;54121;53.508;49.422;2022-08-07T06:16:21;11.23;;;3.30;;
67193;SDS011;54121;53.508;49.422;2022-08-07T06:18:48;15.38;;;3.90;;
67193;SDS011;54121;53.508;49.422;2022-08-07T06:21:15;13.35;;;3.35;;
67193;SDS011;54121;53.508;49.422;2022-08-07T06:23:42;12.27;;;3.50;;
67193;SDS011;54121;53.508;49.422;2022-08-07T06:26:13;10.43;;;3.30;;
67193;SDS011;54121;53.508;49.422;2022-08-07T06:28:53;12.82;;;3.00;;
67193;SDS011;54121;53.508;49.422;2022-08-07T06:31:22;13.68;;;3.30;;
67193;SDS011;54121;53.508;49.422;2022-08-07T06:33:50;13.80;;;3.40;;
67193;SDS011;54121;53.508;49.422;2022-08-07T06:36:16;13.00;;;3.47;;
67193;SDS011;54121;53.508;49.422;2022-08-07T06:38:43;15.23;;;4.07;;
67193;SDS011;54121;53.508;49.422;2022-08-07T06:41:11;9.73;;;3.30;;
67193;SDS011;54121;53.508;49.422;2022-08-07T06:43:46;9.75;;;3.33;;
67193;SDS011;54121;53.508;49.422;2022-08-07T06:46:14;10.13;;;3.00;;
67193;SDS011;54121;53.508;49.422;2022-08-07T06:48:41;14.60;;;2.83;;
67193;SDS011;54121;53.508;49.422;2022-08-07T06:51:08;6.88;;;3.17;;
67193;SDS011;54121;53.508;49.422;2022-08-07T06:53:39;4.18;;;1.50;;
67193;SDS011;54121;53.508;49.422;2022-08-07T06:56:06;7.25;;;1.95;;
67193;SDS011;54121;53.508;49.422;2022-08-07T06:58:34;4.18;;;1.60;;
67193;SDS011;54121;53.508;49.422;2022-08-07T07:01:02;5.40;;;2.10;;
67193;SDS011;54121;53.508;49.422;2022-08-07T07:03:32;5.45;;;2.03;;
67193;SDS011;54121;53.508;49.422;2022-08-07T07:05:58;4.57;;;1.70;;
67193;SDS011;54121;53.508;49.422;2022-08-07T07:08:26;5.30;;;1.70;;
67193;SDS011;54121;53.508;49.422;2022-08-07T07:10:54;4.13;;;1.45;;
67193;SDS011;54121;53.508;49.422;2022-08-07T07:13:30;6.60;;;2.00;;
67193;SDS011;54121;53.508;49.422;2022-08-07T07:16:00;8.27;;;2.33;;
67193;SDS011;54121;53.508;49.422;2022-08-07T07:18:38;5.47;;;1.63;;
67193;SDS011;54121;53.508;49.422;2022-08-07T07:21:12;4.63;;;1.40;;
67193;SDS011;54121;53.508;49.422;2022-08-07T07:23:43;6.18;;;1.83;;
67193;SDS011;54121;53.508;49.422;2022-08-07T07:26:12;4.90;;;1.93;;
67193;SDS011;54121;53.508;49.422;2022-08-07T07:28:44;13.32;;;2.08;;
67193;SDS011;54121;53.508;49.422;2022-08-07T07:31:28;7.45;;;2.22;;
67193;SDS011;54121;53.508;49.422;2022-08-07T07:34:03;5.93;;;1.70;;
67193;SDS011;54121;53.508;49.422;2022-08-07T07:36:33;9.07;;;1.50;;
67193;SDS011;54121;53.508;49.422;2022-08-07T07:39:01;4.78;;;1.52;;
67193;SDS011;54121;53.508;49.422;2022-08-07T07:41:29;5.93;;;1.50;;
67193;SDS011;54121;53.508;49.422;2022-08-07T07:43:57;5.40;;;1.90;;
67193;SDS011;54121;53.508;49.422;2022-08-07T07:46:29;6.80;;;1.85;;
67193;SDS011;54121;53.508;49.422;2022-08-07T07:48:57;7.20;;;2.03;;
67193;SDS011;54121;53.508;49.422;2022-08-07T07:51:24;5.50;;;1.95;;
67193;SDS011;54121;53.508;49.422;2022-08-07T07:53:53;6.45;;;1.77;;
67193;SDS011;54121;53.508;49.422;2022-08-07T07:56:23;7.30;;;1.77;;
67193;SDS011;54121;53.508;49.422;2022-08-07T07:58:50;6.68;;;1.63;;
67193;SDS011;54121;53.508;49.422;2022-08-07T08:01:18;7.25;;;1.63;;
67193;SDS011;54121;53.508;49.422;2022-08-07T08:03:47;2.78;;;1.63;;
67193;SDS011;54121;53.508;49.422;2022-08-07T08:06:15;7.40;;;1.48;;
67193;SDS011;54121;53.508;49.422;2022-08-07T08:08:43;7.35;;;2.00;;
67193;SDS011;54121;53.508;49.422;2022-08-07T08:11:10;5.53;;;1.70;;
67193;SDS011;54121;53.508;49.422;2022-08-07T08:13:39;8.10;;;1.83;;
67193;SDS011;54121;53.508;49.422;2022-08-07T08:16:08;4.47;;;1.90;;
67193;SDS011;54121;53.508;49.422;2022-08-07T08:18:42;7.18;;;1.70;;
67193;SDS011;54121;53.508;49.422;2022-08-07T08:21:10;1.80;;;1.10;;
67193;SDS011;54121;53.508;49.422;2022-08-07T08:23:59;5.63;;;1.17;;
67193;SDS011;54121;53.508;49.422;2022-08-07T08:26:46;7.35;;;1.58;;
67193;SDS011;54121;53.508;49.422;2022-08-07T08:29:38;2.40;;;1.20;;
67193;SDS011;54121;53.508;49.422;2022-08-07T08:32:11;2.60;;;1.30;;
67193;SDS011;54121;53.508;49.422;2022-08-07T08:34:40;4.82;;;1.20;;
67193;SDS011;54121;53.508;49.422;2022-08-07T08:37:09;3.78;;;1.40;;
67193;SDS011;54121;53.508;49.422;2022-08-07T08:39:36;4.03;;;1.30;;
67193;SDS011;54121;53.508;49.422;2022-08-07T08:42:10;3.33;;;1.05;;
67193;SDS011;54121;53.508;49.422;2022-08-07T08:44:47;2.40;;;1.20;;
67193;SDS011;54121;53.508;49.422;2022-08-07T08:47:20;7.57;;;1.38;;
67193;SDS011;54121;53.508;49.422;2022-08-07T08:50:11;3.67;;;1.20;;
67193;SDS011;54121;53.508;49.422;2022-08-07T08:52:48;6.68;;;1.17;;
67193;SDS011;54121;53.508;49.422;2022-08-07T08:55:40;3.10;;;1.10;;
67193;SDS011;54121;53.508;49.422;2022-08-07T08:58:14;2.33;;;1.02;;
67193;SDS011;54121;53.508;49.422;2022-08-07T09:00:45;5.35;;;1.10;;
67193;SDS011;54121;53.508;49.422;2022-08-07T09:03:24;2.90;;;1.35;;
67193;SDS011;54121;53.508;49.422;2022-08-07T09:11:57;3.63;;;1.45;;
67193;SDS011;54121;53.508;49.422;2022-08-07T09:14:39;5.15;;;1.00;;
67193;SDS011;54121;53.508;49.422;2022-08-07T09:17:45;1.92;;;1.10;;
67193;SDS011;54121;53.508;49.422;2022-08-07T09:20:24;2.67;;;1.20;;
67193;SDS011;54121;53.508;49.422;2022-08-07T09:22:55;5.22;;;1.45;;
67193;SDS011;54121;53.508;49.422;2022-08-07T09:25:25;3.60;;;1.00;;
67193;SDS011;54121;53.508;49.422;2022-08-07T09:28:03;3.83;;;0.88;;
67193;SDS011;54121;53.508;49.422;2022-08-07T09:33:46;6.03;;;1.23;;
67193;SDS011;54121;53.508;49.422;2022-08-07T09:36:15;8.90;;;1.50;;
67193;SDS011;54121;53.508;49.422;2022-08-07T09:41:51;5.55;;;1.40;;
67193;SDS011;54121;53.508;49.422;2022-08-07T09:47:06;2.50;;;1.15;;
67193;SDS011;54121;53.508;49.422;2022-08-07T09:49:51;6.05;;;1.10;;
67193;SDS011;54121;53.508;49.422;2022-08-07T09:52:38;2.78;;;1.20;;
67193;SDS011;54121;53.508;49.422;2022-08-07T10:00:13;3.70;;;1.42;;
67193;SDS011;54121;53.508;49.422;2022-08-07T10:08:59;4.88;;;1.23;;
67193;SDS011;54121;53.508;49.422;2022-08-07T10:17:11;2.35;;;1.10;;
67193;SDS011;54121;53.508;49.422;2022-08-07T10:22:45;6.10;;;1.35;;
67193;SDS011;54121;53.508;49.422;2022-08-07T10:31:54;1.95;;;1.35;;
67193;SDS011;54121;53.508;49.422;2022-08-07T10:42:28;6.53;;;1.50;;
67193;SDS011;54121;53.508;49.422;2022-08-07T10:45:20;2.15;;;1.05;;
67193;SDS011;54121;53.508;49.422;2022-08-07T10:48:02;6.75;;;1.73;;
67193;SDS011;54121;53.508;49.422;2022-08-07T10:50:34;5.03;;;1.35;;
67193;SDS011;54121;53.508;49.422;2022-08-07T10:53:15;5.20;;;1.45;;
67193;SDS011;54121;53.508;49.422;2022-08-07T10:58:34;5.10;;;1.38;;
67193;SDS011;54121;53.508;49.422;2022-08-07T11:10:02;6.57;;;2.13;;
67193;SDS011;54121;53.508;49.422;2022-08-07T11:12:35;7.45;;;1.70;;
67193;SDS011;54121;53.508;49.422;2022-08-07T11:15:17;5.95;;;1.40;;
67193;SDS011;54121;53.508;49.422;2022-08-07T11:17:51;5.07;;;2.05;;
67193;SDS011;54121;53.508;49.422;2022-08-07T11:23:25;6.30;;;2.15;;
67193;SDS011;54121;53.508;49.422;2022-08-07T11:26:04;4.15;;;2.08;;
67193;SDS011;54121;53.508;49.422;2022-08-07T11:28:44;4.68;;;1.90;;
67193;SDS011;54121;53.508;49.422;2022-08-07T11:31:22;14.45;;;2.30;;
67193;SDS011;54121;53.508;49.422;2022-08-07T11:37:12;6.80;;;1.83;;
67193;SDS011;54121;53.508;49.422;2022-08-07T11:39:53;4.05;;;1.70;;
67193;SDS011;54121;53.508;49.422;2022-08-07T11:50:36;4.35;;;1.75;;
67193;SDS011;54121;53.508;49.422;2022-08-07T11:56:09;9.70;;;2.20;;
67193;SDS011;54121;53.508;49.422;2022-08-07T11:58:57;4.78;;;1.90;;
67193;SDS011;54121;53.508;49.422;2022-08-07T12:06:48;6.93;;;2.25;;
67193;SDS011;54121;53.508;49.422;2022-08-07T12:09:36;7.38;;;2.13;;
67193;SDS011;54121;53.508;49.422;2022-08-07T12:15:43;5.88;;;2.35;;
67193;SDS011;54121;53.508;49.422;2022-08-07T12:18:37;10.43;;;3.42;;
67193;SDS011;54121;53.508;49.422;2022-08-07T12:27:50;5.18;;;2.08;;
67193;SDS011;54121;53.508;49.422;2022-08-07T12:30:18;15.88;;;3.08;;
67193;SDS011;54121;53.508;49.422;2022-08-07T12:33:18;9.30;;;3.30;;
67193;SDS011;54121;53.508;49.422;2022-08-07T12:35:46;6.03;;;2.30;;
67193;SDS011;54121;53.508;49.422;2022-08-07T12:38:14;10.85;;;2.40;;
67193;SDS011;54121;53.508;49.422;2022-08-07T12:40:42;4.15;;;1.80;;
67193;SDS011;54121;53.508;49.422;2022-08-07T12:43:12;3.20;;;1.65;;
67193;SDS011;54121;53.508;49.422;2022-08-07T12:48:37;8.90;;;1.80;;
67193;SDS011;54121;53.508;49.422;2022-08-07T12:51:11;8.80;;;2.97;;
67193;SDS011;54121;53.508;49.422;2022-08-07T12:54:06;6.75;;;2.00;;
67193;SDS011;54121;53.508;49.422;2022-08-07T12:56:48;4.18;;;1.70;;
67193;SDS011;54121;53.508;49.422;2022-08-07T12:59:19;5.00;;;1.40;;
67193;SDS011;54121;53.508;49.422;2022-08-07T13:04:28;5.38;;;1.90;;
67193;SDS011;54121;53.508;49.422;2022-08-07T13:10:21;4.90;;;1.60;;
67193;SDS011;54121;53.508;49.422;2022-08-07T13:12:56;5.38;;;1.63;;
67193;SDS011;54121;53.508;49.422;2022-08-07T13:18:42;4.43;;;1.60;;
67193;SDS011;54121;53.508;49.422;2022-08-07T13:21:13;5.32;;;1.60;;
67193;SDS011;54121;53.508;49.422;2022-08-07T13:24:07;12.73;;;1.98;;
67193;SDS011;54121;53.508;49.422;2022-08-07T13:26:38;4.72;;;1.58;;
67193;SDS011;54121;53.508;49.422;2022-08-07T13:29:10;5.32;;;1.33;;
67193;SDS011;54121;53.508;49.422;2022-08-07T13:31:50;5.72;;;1.58;;
67193;SDS011;54121;53.508;49.422;2022-08-07T13:42:15;5.88;;;1.20;;
67193;SDS011;54121;53.508;49.422;2022-08-07T13:44:47;2.33;;;1.20;;
67193;SDS011;54121;53.508;49.422;2022-08-07T13:47:16;5.40;;;2.33;;
67193;SDS011;54121;53.508;49.422;2022-08-07T13:49:44;1.95;;;1.40;;
67193;SDS011;54121;53.508;49.422;2022-08-07T13:52:12;7.30;;;2.17;;
67193;SDS011;54121;53.508;49.422;2022-08-07T13:54:40;4.22;;;1.98;;
67193;SDS011;54121;53.508;49.422;2022-08-07T13:59:42;6.03;;;2.10;;
67193;SDS011;54121;53.508;49.422;2022-08-07T14:02:20;8.57;;;1.75;;
67193;SDS011;54121;53.508;49.422;2022-08-07T14:05:11;6.28;;;2.00;;
67193;SDS011;54121;53.508;49.422;2022-08-07T14:07:46;4.82;;;2.05;;
67193;SDS011;54121;53.508;49.422;2022-08-07T14:10:15;8.50;;;2.17;;
67193;SDS011;54121;53.508;49.422;2022-08-07T14:12:50;2.65;;;1.70;;
67193;SDS011;54121;53.508;49.422;2022-08-07T14:15:27;4.93;;;1.60;;
67193;SDS011;54121;53.508;49.422;2022-08-07T14:18:07;6.45;;;2.17;;
67193;SDS011;54121;53.508;49.422;2022-08-07T14:20:35;7.63;;;2.08;;
67193;SDS011;54121;53.508;49.422;2022-08-07T14:23:05;11.35;;;2.65;;
67193;SDS011;54121;53.508;49.422;2022-08-07T14:25:58;7.63;;;2.30;;
67193;SDS011;54121;53.508;49.422;2022-08-07T14:28:26;9.00;;;2.30;;
67193;SDS011;54121;53.508;49.422;2022-08-07T14:30:54;4.38;;;2.00;;
67193;SDS011;54121;53.508;49.422;2022-08-07T14:33:22;8.40;;;2.75;;
67193;SDS011;54121;53.508;49.422;2022-08-07T14:35:53;7.75;;;2.22;;
67193;SDS011;54121;53.508;49.422;2022-08-07T14:38:24;7.20;;;2.58;;
67193;SDS011;54121;53.508;49.422;2022-08-07T14:41:00;10.20;;;2.53;;
67193;SDS011;54121;53.508;49.422;2022-08-07T14:43:32;8.85;;;3.05;;
67193;SDS011;54121;53.508;49.422;2022-08-07T14:46:03;13.35;;;3.95;;
67193;SDS011;54121;53.508;49.422;2022-08-07T14:48:33;9.02;;;3.10;;
67193;SDS011;54121;53.508;49.422;2022-08-07T14:51:10;13.05;;;3.88;;
67193;SDS011;54121;53.508;49.422;2022-08-07T14:53:39;6.60;;;2.78;;
67193;SDS011;54121;53.508;49.422;2022-08-07T14:56:07;4.63;;;3.05;;
67193;SDS011;54121;53.508;49.422;2022-08-07T14:58:39;18.35;;;4.05;;
67193;SDS011;54121;53.508;49.422;2022-08-07T15:01:07;7.55;;;2.72;;
67193;SDS011;54121;53.508;49.422;2022-08-07T15:03:35;16.85;;;4.10;;
67193;SDS011;54121;53.508;49.422;2022-08-07T15:08:36;9.63;;;3.50;;
67193;SDS011;54121;53.508;49.422;2022-08-07T15:11:11;4.32;;;2.65;;
67193;SDS011;54121;53.508;49.422;2022-08-07T15:13:44;11.80;;;2.72;;
67193;SDS011;54121;53.508;49.422;2022-08-07T15:16:12;8.93;;;2.63;;
67193;SDS011;54121;53.508;49.422;2022-08-07T15:18:43;18.15;;;3.50;;
67193;SDS011;54121;53.508;49.422;2022-08-07T15:21:11;10.98;;;4.22;;
67193;SDS011;54121;53.508;49.422;2022-08-07T15:23:40;15.02;;;3.42;;
67193;SDS011;54121;53.508;49.422;2022-08-07T15:26:09;4.68;;;2.65;;
67193;SDS011;54121;53.508;49.422;2022-08-07T15:28:37;14.17;;;3.93;;
67193;SDS011;54121;53.508;49.422;2022-08-07T15:31:07;12.25;;;4.10;;
67193;SDS011;54121;53.508;49.422;2022-08-07T15:33:37;16.77;;;7.00;;
67193;SDS011;54121;53.508;49.422;2022-08-07T15:36:05;19.58;;;6.07;;
67193;SDS011;54121;53.508;49.422;2022-08-07T15:38:33;14.98;;;5.28;;
67193;SDS011;54121;53.508;49.422;2022-08-07T15:41:03;14.85;;;5.78;;
67193;SDS011;54121;53.508;49.422;2022-08-07T15:43:32;17.88;;;6.03;;
67193;SDS011;54121;53.508;49.422;2022-08-07T15:46:16;14.82;;;5.65;;
67193;SDS011;54121;53.508;49.422;2022-08-07T15:48:44;69.95;;;12.05;;
67193;SDS011;54121;53.508;49.422;2022-08-07T15:51:11;18.00;;;7.77;;
67193;SDS011;54121;53.508;49.422;2022-08-07T15:53:46;15.65;;;6.15;;
67193;SDS011;54121;53.508;49.422;2022-08-07T15:56:15;20.08;;;6.53;;
67193;SDS011;54121;53.508;49.422;2022-08-07T15:58:49;14.32;;;5.32;;
67193;SDS011;54121;53.508;49.422;2022-08-07T16:03:50;16.58;;;6.35;;
67193;SDS011;54121;53.508;49.422;2022-08-07T16:28:10;16.95;;;5.85;;
67193;SDS011;54121;53.508;49.422;2022-08-07T16:31:01;17.35;;;5.72;;
67193;SDS011;54121;53.508;49.422;2022-08-07T16:33:48;17.50;;;5.05;;
67193;SDS011;54121;53.508;49.422;2022-08-07T16:36:23;18.00;;;5.10;;
67193;SDS011;54121;53.508;49.422;2022-08-07T16:41:34;19.63;;;6.07;;
67193;SDS011;54121;53.508;49.422;2022-08-07T16:44:10;14.80;;;5.82;;
67193;SDS011;54121;53.508;49.422;2022-08-07T16:46:44;28.08;;;6.13;;
67193;SDS011;54121;53.508;49.422;2022-08-07T16:51:49;19.42;;;6.20;;
67193;SDS011;54121;53.508;49.422;2022-08-07T17:04:39;22.48;;;7.78;;
67193;SDS011;54121;53.508;49.422;2022-08-07T17:12:06;28.05;;;8.65;;
67193;SDS011;54121;53.508;49.422;2022-08-07T17:14:40;35.10;;;9.40;;
67193;SDS011;54121;53.508;49.422;2022-08-07T17:17:12;20.55;;;8.57;;
67193;SDS011;54121;53.508;49.422;2022-08-07T17:19:44;28.55;;;9.27;;
67193;SDS011;54121;53.508;49.422;2022-08-07T17:22:18;30.13;;;9.55;;
67193;SDS011;54121;53.508;49.422;2022-08-07T17:24:52;30.90;;;10.18;;
67193;SDS011;54121;53.508;49.422;2022-08-07T17:28:08;30.38;;;10.30;;
67193;SDS011;54121;53.508;49.422;2022-08-07T17:30:48;23.63;;;8.80;;
67193;SDS011;54121;53.508;49.422;2022-08-07T17:33:32;30.80;;;10.23;;
67193;SDS011;54121;53.508;49.422;2022-08-07T17:41:15;36.05;;;10.55;;
67193;SDS011;54121;53.508;49.422;2022-08-07T17:43:48;27.95;;;8.55;;
67193;SDS011;54121;53.508;49.422;2022-08-07T17:46:39;36.15;;;9.50;;
67193;SDS011;54121;53.508;49.422;2022-08-07T17:49:27;26.15;;;11.50;;
67193;SDS011;54121;53.508;49.422;2022-08-07T17:52:07;46.50;;;10.80;;
67193;SDS011;54121;53.508;49.422;2022-08-07T18:00:04;21.77;;;7.10;;
67193;SDS011;54121;53.508;49.422;2022-08-07T18:02:45;31.48;;;7.72;;
67193;SDS011;54121;53.508;49.422;2022-08-07T18:08:14;20.33;;;8.05;;